createdAt,value
2018-03-27T00:03:08.499Z,101341.09
2018-03-27T00:08:10.987Z,101343.97
2018-03-27T00:13:13.735Z,101337.92
2018-03-27T00:18:16.244Z,101346.14
2018-03-27T00:23:18.741Z,101359.19
2018-03-27T00:28:33.035Z,101355.27
2018-03-27T00:33:47.220Z,101363.28
2018-03-27T00:39:01.604Z,101358.66
2018-03-27T00:44:04.058Z,101364.95
2018-03-27T00:49:06.672Z,101363.11
2018-03-27T00:54:09.245Z,101358.80
2018-03-27T00:59:11.774Z,101359.14
2018-03-27T01:04:14.274Z,101358.78
2018-03-27T01:09:17.581Z,101358.57
2018-03-27T01:14:20.058Z,101361.27
2018-03-27T01:19:22.542Z,101365.23
2018-03-27T01:24:25.008Z,101370.35
2018-03-27T01:29:27.473Z,101371.56
2018-03-27T01:34:29.928Z,101366.91
2018-03-27T01:39:32.391Z,101369.77
2018-03-27T01:44:34.889Z,101363.41
2018-03-27T01:49:37.367Z,101368.92
2018-03-27T01:54:39.840Z,101365.17
2018-03-27T01:59:42.436Z,101361.35
2018-03-27T02:04:44.940Z,101355.08
2018-03-27T02:09:47.498Z,101360.89
2018-03-27T02:14:55.579Z,101347.58
2018-03-27T02:20:03.631Z,101346.79
2018-03-27T02:25:06.132Z,101338.27
2018-03-27T02:30:08.777Z,101330.74
2018-03-27T02:35:11.402Z,101331.82
2018-03-27T02:40:13.960Z,101334.57
2018-03-27T02:45:16.495Z,101331.67
2018-03-27T02:50:19.027Z,101326.61
2018-03-27T02:55:21.517Z,101335.39
2018-03-27T03:00:24.014Z,101340.47
2018-03-27T03:05:26.510Z,101346.61
2018-03-27T03:10:29.003Z,101348.52
2018-03-27T03:15:31.492Z,101357.80
2018-03-27T03:20:34.015Z,101356.13
2018-03-27T03:25:36.497Z,101361.39
2018-03-27T03:30:38.997Z,101359.73
2018-03-27T03:35:41.568Z,101360.44
2018-03-27T03:40:44.075Z,101360.33
2018-03-27T03:45:46.585Z,101361.11
2018-03-27T03:50:49.636Z,101362.14
2018-03-27T03:55:52.099Z,101365.47
2018-03-27T04:00:54.675Z,101365.55
2018-03-27T04:05:57.144Z,101364.41
2018-03-27T04:10:59.637Z,101356.97
2018-03-27T04:16:02.119Z,101355.31
2018-03-27T04:21:04.610Z,101357.67
2018-03-27T04:26:07.259Z,101358.66
2018-03-27T04:31:09.729Z,101372.43
2018-03-27T04:36:12.265Z,101363.48
2018-03-27T04:41:14.762Z,101367.05
2018-03-27T04:46:17.238Z,101356.33
2018-03-27T04:51:19.990Z,101367.44
2018-03-27T04:56:22.477Z,101367.89
2018-03-27T05:01:25.096Z,101366.84
2018-03-27T05:06:27.549Z,101357.80
2018-03-27T05:11:30.015Z,101376.42
2018-03-27T05:16:32.531Z,101366.89
2018-03-27T05:21:35.058Z,101362.59
2018-03-27T05:26:37.627Z,101365.14
2018-03-27T05:31:40.162Z,101370.69
2018-03-27T05:36:42.679Z,101364.70
2018-03-27T05:41:45.202Z,101368.68
2018-03-27T05:46:47.897Z,101370.81
2018-03-27T05:51:50.369Z,101372.06
2018-03-27T05:56:52.909Z,101377.30
2018-03-27T06:01:55.398Z,101373.74
2018-03-27T06:06:57.881Z,101380.80
2018-03-27T06:12:00.334Z,101383.07
2018-03-27T06:17:03.163Z,101383.14
2018-03-27T06:22:05.707Z,101388.78
2018-03-27T06:27:08.253Z,101387.94
2018-03-27T06:32:10.920Z,101384.64
2018-03-27T06:37:13.438Z,101389.82
2018-03-27T06:42:15.961Z,101382.92
2018-03-27T06:47:18.432Z,101382.37
2018-03-27T06:52:20.918Z,101387.95
2018-03-27T06:57:23.401Z,101382.47
2018-03-27T07:02:25.905Z,101392.05
2018-03-27T07:07:28.460Z,101389.77
2018-03-27T07:12:31.028Z,101382.31
2018-03-27T07:17:33.524Z,101380.17
2018-03-27T07:22:36.035Z,101380.70
2018-03-27T07:27:38.596Z,101384.31
2018-03-27T07:32:41.157Z,101382.66
2018-03-27T07:37:43.674Z,101375.43
2018-03-27T07:42:46.187Z,101378.52
2018-03-27T07:47:48.673Z,101380.00
2018-03-27T07:52:51.212Z,101378.41
2018-03-27T07:57:53.758Z,101381.78
2018-03-27T08:02:56.423Z,101380.61
2018-03-27T08:07:58.935Z,101373.84
2018-03-27T08:13:01.464Z,101367.53
2018-03-27T08:18:03.922Z,101359.58
2018-03-27T08:23:06.508Z,101352.97
2018-03-27T08:28:09.972Z,101353.70
2018-03-27T08:33:12.502Z,101350.02
2018-03-27T08:38:15.044Z,101343.80
2018-03-27T08:43:25.121Z,101343.59
2018-03-27T08:48:27.595Z,101342.97
2018-03-27T08:53:30.074Z,101338.80
2018-03-27T08:58:32.542Z,101341.07
2018-03-27T09:03:35.049Z,101344.65
2018-03-27T09:08:37.522Z,101342.20
2018-03-27T09:13:40.081Z,101332.08
2018-03-27T09:18:42.646Z,101333.82
2018-03-27T09:23:45.114Z,101330.14
2018-03-27T09:28:47.684Z,101324.06
2018-03-27T09:33:50.126Z,101321.48
2018-03-27T09:38:52.710Z,101317.05
2018-03-27T09:43:55.197Z,101312.78
2018-03-27T09:48:57.829Z,101304.31
2018-03-27T09:54:00.314Z,101302.19
2018-03-27T09:59:02.856Z,101291.41
2018-03-27T10:04:05.355Z,101292.13
2018-03-27T10:09:08.126Z,101292.16
2018-03-27T10:14:10.651Z,101285.58
2018-03-27T10:19:14.176Z,101281.55
2018-03-27T10:24:16.691Z,101271.14
2018-03-27T10:29:19.154Z,101274.31
2018-03-27T10:34:21.640Z,101275.66
2018-03-27T10:39:24.212Z,101270.77
2018-03-27T10:44:26.694Z,101264.28
2018-03-27T10:49:29.177Z,101260.50
2018-03-27T10:54:31.671Z,101255.14
2018-03-27T10:59:34.134Z,101263.52
2018-03-27T11:04:38.259Z,101262.88
2018-03-27T11:09:40.830Z,101260.17
2018-03-27T11:14:43.341Z,101262.02
2018-03-27T11:19:45.840Z,101263.74
2018-03-27T11:24:48.327Z,101266.16
2018-03-27T11:29:50.795Z,101274.16
2018-03-27T11:34:53.300Z,101264.28
2018-03-27T11:39:55.785Z,101259.23
2018-03-27T11:44:58.299Z,101251.58
2018-03-27T11:50:00.764Z,101250.93
2018-03-27T11:55:03.258Z,101239.76
2018-03-27T12:00:05.731Z,101238.36
2018-03-27T12:05:08.202Z,101228.80
2018-03-27T12:10:10.763Z,101225.66
2018-03-27T12:15:13.275Z,101217.09
2018-03-27T12:20:15.964Z,101215.08
2018-03-27T12:25:18.480Z,101205.66
2018-03-27T12:30:20.962Z,101200.86
2018-03-27T12:35:23.406Z,101188.30
2018-03-27T12:40:25.896Z,101191.44
2018-03-27T12:45:28.369Z,101185.33
2018-03-27T12:50:30.859Z,101184.66
2018-03-27T12:55:33.388Z,101180.98
2018-03-27T13:00:35.879Z,101170.88
2018-03-27T13:05:38.568Z,101164.44
2018-03-27T13:10:41.032Z,101150.20
2018-03-27T13:15:43.866Z,101142.59
2018-03-27T13:20:46.701Z,101148.52
2018-03-27T13:25:49.151Z,101129.55
2018-03-27T13:30:51.638Z,101130.44
2018-03-27T13:35:54.086Z,101116.55
2018-03-27T13:40:56.567Z,101120.86
2018-03-27T13:45:59.045Z,101112.02
2018-03-27T13:51:01.505Z,101103.38
2018-03-27T13:56:04.004Z,101106.00
2018-03-27T14:01:06.498Z,101094.11
2018-03-27T14:06:09.027Z,101089.09
2018-03-27T14:11:11.509Z,101086.69
2018-03-27T14:16:14.041Z,101093.53
2018-03-27T14:21:16.522Z,101081.56
2018-03-27T14:26:18.972Z,101091.30
2018-03-27T14:31:21.449Z,101084.98
2018-03-27T14:36:23.985Z,101069.94
2018-03-27T14:41:26.467Z,101067.91
2018-03-27T14:46:29.183Z,101064.97
2018-03-27T14:51:31.701Z,101055.59
2018-03-27T14:56:34.224Z,101046.05
2018-03-27T15:01:36.793Z,101047.09
2018-03-27T15:06:39.319Z,101046.30
2018-03-27T15:11:41.833Z,101042.84
2018-03-27T15:16:44.415Z,101047.45
2018-03-27T15:21:47.009Z,101035.33
2018-03-27T15:26:50.440Z,101025.41
2018-03-27T15:31:52.957Z,101039.13
2018-03-27T15:36:55.422Z,101020.34
2018-03-27T15:41:57.932Z,101016.92
2018-03-27T15:47:00.468Z,101017.90
2018-03-27T15:52:02.948Z,101011.76
2018-03-27T15:57:07.400Z,101000.31
2018-03-27T16:02:09.940Z,100998.50
2018-03-27T16:07:23.368Z,100996.21
2018-03-27T16:12:25.898Z,100991.14
2018-03-27T16:17:28.416Z,100990.25
2018-03-27T16:22:30.922Z,100985.70
2018-03-27T16:27:33.441Z,100986.45
2018-03-27T16:32:35.971Z,100988.94
2018-03-27T16:37:38.449Z,100974.16
2018-03-27T16:42:40.901Z,100982.86
2018-03-27T16:47:43.542Z,100984.62
2018-03-27T16:52:46.092Z,100985.41
2018-03-27T16:57:48.551Z,100985.28
2018-03-27T17:02:51.044Z,100986.61
2018-03-27T17:07:53.515Z,100989.05
2018-03-27T17:12:56.054Z,100990.66
2018-03-27T17:17:58.520Z,100979.53
2018-03-27T17:23:00.965Z,100979.81
2018-03-27T17:28:03.446Z,100975.66
2018-03-27T17:33:05.981Z,100969.16
2018-03-27T17:38:08.469Z,100964.60
2018-03-27T17:43:10.986Z,100962.58
2018-03-27T17:48:13.473Z,100962.81
2018-03-27T17:53:16.011Z,100969.17
2018-03-27T17:58:18.611Z,100973.30
2018-03-27T18:03:21.148Z,100972.63
2018-03-27T18:08:23.672Z,100978.14
2018-03-27T18:13:26.182Z,100979.23
2018-03-27T18:18:28.616Z,100974.08
2018-03-27T18:23:32.048Z,100975.70
2018-03-27T18:28:34.498Z,100979.84
2018-03-27T18:33:37.015Z,100980.45
2018-03-27T18:38:39.496Z,100980.08
2018-03-27T18:43:42.706Z,100983.41
2018-03-27T18:48:45.281Z,100982.39
2018-03-27T18:53:47.784Z,100982.61
2018-03-27T18:58:50.291Z,100981.02
2018-03-27T19:03:52.780Z,100980.27
2018-03-27T19:08:55.235Z,100977.43
2018-03-27T19:13:57.708Z,100982.36
2018-03-27T19:19:00.156Z,100983.95
2018-03-27T19:24:02.662Z,100977.75
2018-03-27T19:29:05.128Z,100973.66
2018-03-27T19:34:07.593Z,100971.93
2018-03-27T19:39:10.075Z,100965.62
2018-03-27T19:44:12.570Z,100958.52
2018-03-27T19:49:15.032Z,100952.89
2018-03-27T19:54:17.483Z,100946.47
2018-03-27T19:59:20.004Z,100940.44
2018-03-27T20:04:22.647Z,100944.76
2018-03-27T20:09:25.162Z,100944.11
2018-03-27T20:14:27.765Z,100948.69
2018-03-27T20:19:30.450Z,100949.03
2018-03-27T20:24:33.045Z,100952.74
2018-03-27T20:29:35.548Z,100952.92
2018-03-27T20:34:38.025Z,100946.67
2018-03-27T20:39:40.501Z,100946.91
2018-03-27T20:44:42.989Z,100943.12
2018-03-27T20:49:45.439Z,100936.91
2018-03-27T20:54:47.910Z,100928.25
2018-03-27T20:59:50.388Z,100921.16
2018-03-27T21:04:52.884Z,100926.77
2018-03-27T21:09:55.386Z,100923.27
2018-03-27T21:14:57.897Z,100912.33
2018-03-27T21:20:00.511Z,100909.15
2018-03-27T21:25:02.984Z,100902.14
2018-03-27T21:30:05.420Z,100899.97
2018-03-27T21:35:07.913Z,100895.31
2018-03-27T21:40:10.359Z,100891.07
2018-03-27T21:45:12.852Z,100880.47
2018-03-27T21:50:15.362Z,100877.45
2018-03-27T21:55:17.844Z,100875.99
2018-03-27T22:00:20.903Z,100871.95
2018-03-27T22:05:23.348Z,100876.28
2018-03-27T22:10:25.806Z,100869.73
2018-03-27T22:15:28.259Z,100866.44
2018-03-27T22:20:30.714Z,100858.05
2018-03-27T22:25:33.161Z,100850.89
2018-03-27T22:30:35.614Z,100848.21
2018-03-27T22:35:38.184Z,100845.14
2018-03-27T22:40:40.686Z,100847.22
2018-03-27T22:45:43.210Z,100830.90
2018-03-27T22:50:45.699Z,100819.04
2018-03-27T22:55:48.174Z,100815.09
2018-03-27T23:00:50.641Z,100807.31
2018-03-27T23:05:53.108Z,100813.48
2018-03-27T23:10:55.558Z,100801.65
2018-03-27T23:15:58.005Z,100803.67
2018-03-27T23:21:00.476Z,100799.23
2018-03-27T23:26:02.952Z,100812.55
2018-03-27T23:31:05.439Z,100804.97
2018-03-27T23:36:07.936Z,100810.20
2018-03-27T23:41:10.479Z,100812.43
2018-03-27T23:46:13.224Z,100799.80
2018-03-27T23:51:15.752Z,100794.62
2018-03-27T23:56:18.233Z,100795.33
